Time;durP1;ratioP1;P1;durP2;ratioP2;P2;SDS_P1;SDS_P2;PMS_P1;PMS_P2;Temp;Humidity;BMP_temperature;BMP_pressure;BME280_temperature;BME280_humidity;BME280_pressure;Samples;Min_cycle;Max_cycle;Signal;HPM_P1;HPM_P2
2022/12/22 03:26:24;;;;;;;1999.90;999.90;;;10.40;99.90;;;;;;5032190;28;20842;-68
2022/12/22 03:28:50;;;;;;;1999.90;999.90;;;10.40;99.90;;;;;;5031615;28;20425;-68
2022/12/22 03:31:16;;;;;;;1999.90;999.90;;;10.50;99.90;;;;;;5031992;28;20925;-68
2022/12/22 03:33:42;;;;;;;1999.90;999.90;;;10.30;99.90;;;;;;5031763;28;20565;-67
2022/12/22 03:36:08;;;;;;;1999.90;999.90;;;10.50;99.90;;;;;;5031793;28;20399;-67
2022/12/22 03:38:34;;;;;;;1999.90;999.90;;;10.30;99.90;;;;;;5031595;28;20176;-68
2022/12/22 03:41:00;;;;;;;1999.90;999.90;;;10.30;99.90;;;;;;5031822;28;20410;-68
2022/12/22 03:46:30;;;;;;;1999.90;999.90;;;10.40;99.90;;;;;;5035389;28;20183;-67
2022/12/22 03:49:09;;;;;;;1999.90;999.90;;;10.40;99.90;;;;;;5035668;28;20521;-68
2022/12/22 03:51:43;;;;;;;1999.90;999.90;;;10.60;99.90;;;;;;5035525;28;20500;-68
2022/12/22 03:54:13;;;;;;;1999.90;999.90;;;10.60;99.90;;;;;;5035787;28;20520;-67
2022/12/22 03:56:40;;;;;;;1999.90;999.90;;;10.50;99.90;;;;;;5035575;28;20485;-67
2022/12/22 03:59:06;;;;;;;1999.90;999.90;;;10.50;99.90;;;;;;5035433;28;20434;-67
2022/12/22 04:01:35;;;;;;;1999.90;999.90;;;10.60;99.90;;;;;;5035390;28;20411;-67
2022/12/22 04:04:01;;;;;;;1999.90;999.90;;;10.60;99.90;;;;;;5035446;28;20476;-68
2022/12/22 04:06:26;;;;;;;1999.90;999.90;;;10.60;99.90;;;;;;5035304;28;20881;-67
2022/12/22 04:08:52;;;;;;;1999.90;999.90;;;10.60;99.90;;;;;;5035204;28;20176;-68
2022/12/22 04:14:03;;;;;;;1999.90;999.90;;;10.70;99.90;;;;;;5035434;28;20211;-67
2022/12/22 04:16:29;;;;;;;1999.90;999.90;;;10.70;99.90;;;;;;5035082;28;20403;-67
2022/12/22 04:18:54;;;;;;;1999.90;999.90;;;10.70;99.90;;;;;;5035022;28;20410;-67
2022/12/22 04:21:20;;;;;;;1999.90;999.90;;;10.70;99.90;;;;;;5035200;28;20449;-67
2022/12/22 04:23:45;;;;;;;1999.90;999.90;;;10.70;99.90;;;;;;5035089;28;20191;-68
2022/12/22 04:26:11;;;;;;;1999.90;999.90;;;10.70;99.90;;;;;;5034953;28;20204;-68
2022/12/22 04:28:37;;;;;;;1999.90;999.90;;;10.70;99.90;;;;;;5034824;28;20172;-68
2022/12/22 04:31:02;;;;;;;1999.90;999.90;;;10.90;99.90;;;;;;5034906;28;20235;-67
2022/12/22 04:33:28;;;;;;;1999.90;999.90;;;10.70;99.90;;;;;;5034875;28;20192;-68
2022/12/22 04:35:53;;;;;;;1999.90;999.90;;;10.90;99.90;;;;;;5034765;28;20175;-67
2022/12/22 04:38:19;;;;;;;1999.90;999.90;;;10.70;99.90;;;;;;5034668;28;20247;-68
2022/12/22 04:40:44;;;;;;;1999.90;999.90;;;10.90;99.90;;;;;;5034843;28;20190;-68
2022/12/22 04:43:10;;;;;;;1999.90;999.90;;;10.80;99.90;;;;;;5034635;28;20192;-67
2022/12/22 04:45:35;;;;;;;1999.90;999.90;;;10.80;99.90;;;;;;5034665;28;20172;-68
2022/12/22 04:48:01;;;;;;;1999.90;999.90;;;10.70;99.90;;;;;;5034322;28;20322;-68
2022/12/22 04:50:26;;;;;;;1999.90;999.90;;;10.70;99.90;;;;;;5034641;28;20533;-67
2022/12/22 04:52:52;;;;;;;1999.90;999.90;;;10.70;99.90;;;;;;5034544;28;20205;-67
2022/12/22 04:55:18;;;;;;;1999.90;999.90;;;10.70;99.90;;;;;;5034196;28;20200;-67
2022/12/22 04:57:44;;;;;;;1999.90;999.90;;;10.90;99.90;;;;;;5034227;28;20418;-66
2022/12/22 05:00:10;;;;;;;1999.90;999.90;;;10.90;99.90;;;;;;5034382;28;20168;-67
2022/12/22 05:02:36;;;;;;;1999.90;999.90;;;10.70;99.90;;;;;;5034252;28;20495;-67
2022/12/22 05:05:01;;;;;;;1999.90;999.90;;;10.70;99.90;;;;;;5034380;28;20897;-67
2022/12/22 05:07:27;;;;;;;1999.90;999.90;;;10.70;99.90;;;;;;5034073;28;20244;-68
2022/12/22 05:09:53;;;;;;;1999.90;999.90;;;10.70;99.90;;;;;;5034218;28;20190;-66
2022/12/22 05:15:03;;;;;;;1999.90;999.90;;;10.70;99.90;;;;;;5034088;28;20269;-67
2022/12/22 05:17:28;;;;;;;1999.90;999.90;;;10.80;99.90;;;;;;5033856;28;20399;-66
2022/12/22 05:19:54;;;;;;;1999.90;999.90;;;10.70;99.90;;;;;;5034020;28;20165;-67
2022/12/22 05:22:19;;;;;;;1999.90;999.90;;;10.70;99.90;;;;;;5033979;28;20976;-68
2022/12/22 05:24:45;;;;;;;1999.90;999.90;;;10.70;99.90;;;;;;5034014;28;20258;-67
2022/12/22 05:27:11;;;;;;;1999.90;999.90;;;11.00;99.90;;;;;;5033732;28;20660;-67
2022/12/22 05:29:36;;;;;;;1999.90;999.90;;;10.70;99.90;;;;;;5033707;28;20221;-66
2022/12/22 05:32:02;;;;;;;1999.90;999.90;;;10.90;99.90;;;;;;5033799;28;20431;-67
2022/12/22 05:34:28;;;;;;;1999.90;999.90;;;10.70;99.90;;;;;;5033762;28;20192;-67
2022/12/22 05:36:53;;;;;;;1999.90;999.90;;;10.70;99.90;;;;;;5033639;28;20176;-67
2022/12/22 05:39:19;;;;;;;1999.90;999.90;;;10.70;99.90;;;;;;5033570;28;20213;-67
2022/12/22 05:41:44;;;;;;;1999.90;999.90;;;10.70;99.90;;;;;;5033584;28;20538;-67
2022/12/22 05:44:10;;;;;;;1999.90;999.90;;;11.00;99.90;;;;;;5033489;28;20199;-67
2022/12/22 05:46:36;;;;;;;1999.90;999.90;;;10.80;99.90;;;;;;5033377;28;20164;-67
2022/12/22 05:49:01;;;;;;;1999.90;999.90;;;10.80;99.90;;;;;;5033492;28;20172;-66
2022/12/22 05:51:27;;;;;;;1999.90;999.90;;;10.70;99.90;;;;;;5033452;28;20204;-66
2022/12/22 05:53:52;;;;;;;1999.90;999.90;;;10.50;99.90;;;;;;5033314;28;20207;-66
2022/12/22 05:56:18;;;;;;;1999.90;999.90;;;10.50;99.90;;;;;;5033251;28;20175;-67
2022/12/22 05:58:43;;;;;;;1999.90;999.90;;;10.40;99.90;;;;;;5033102;28;20167;-67
2022/12/22 06:01:09;;;;;;;1999.90;999.90;;;10.50;99.90;;;;;;5033275;28;20168;-67
2022/12/22 06:03:35;;;;;;;1999.90;999.90;;;;;;;;;;5033161;28;20313;-66
2022/12/22 06:06:01;;;;;;;1999.90;999.90;;;9.90;99.90;;;;;;5033094;28;20168;-67
2022/12/22 06:08:27;;;;;;;1999.90;999.90;;;10.00;99.90;;;;;;5032233;28;20413;-67
2022/12/22 06:10:54;;;;;;;1999.90;999.90;;;9.90;99.90;;;;;;5033108;28;20403;-68
2022/12/22 06:13:20;;;;;;;1999.90;999.90;;;10.20;99.90;;;;;;5032847;28;20458;-68
2022/12/22 06:15:47;;;;;;;1999.90;999.90;;;10.30;99.90;;;;;;5033189;28;20442;-68
2022/12/22 06:18:12;;;;;;;1999.90;999.90;;;10.00;99.90;;;;;;5032665;28;20168;-67
2022/12/22 06:20:38;;;;;;;1999.90;999.90;;;10.00;99.90;;;;;;5032945;28;20839;-68
2022/12/22 06:23:04;;;;;;;1999.90;999.90;;;10.10;99.90;;;;;;5032807;28;20196;-68
2022/12/22 06:25:29;;;;;;;1999.90;999.90;;;10.40;99.90;;;;;;5032856;28;20168;-68
2022/12/22 06:27:55;;;;;;;1999.90;999.90;;;10.40;99.90;;;;;;5032404;28;20176;-67
2022/12/22 06:30:20;;;;;;;1999.90;999.90;;;10.10;99.90;;;;;;5032802;28;20178;-68
2022/12/22 06:32:46;;;;;;;1999.90;999.90;;;10.00;99.90;;;;;;5032780;28;20204;-68
2022/12/22 06:35:12;;;;;;;1999.90;999.90;;;10.10;99.90;;;;;;5032555;28;20195;-68
2022/12/22 06:38:30;;;;;;;1999.90;999.90;;;10.20;99.90;;;;;;5032363;28;20250;-68
2022/12/22 06:40:56;;;;;;;1999.90;999.90;;;10.10;99.90;;;;;;5032491;28;20400;-68
2022/12/22 06:43:22;;;;;;;1999.90;999.90;;;10.40;99.90;;;;;;5032554;28;20640;-68
2022/12/22 06:45:47;;;;;;;1999.90;999.90;;;10.10;99.90;;;;;;5032468;28;20195;-67
2022/12/22 06:48:13;;;;;;;1999.90;999.90;;;10.20;99.90;;;;;;5032233;28;20215;-68
2022/12/22 06:50:39;;;;;;;1999.90;999.90;;;10.40;99.90;;;;;;5032458;28;20208;-68
2022/12/22 06:53:05;;;;;;;1999.90;999.90;;;10.40;99.90;;;;;;5032265;28;20236;-68
2022/12/22 06:55:31;;;;;;;1999.90;999.90;;;10.30;99.90;;;;;;5032215;28;20201;-68
2022/12/22 06:57:56;;;;;;;1999.90;999.90;;;10.50;99.90;;;;;;5032172;28;20410;-68
2022/12/22 07:00:22;;;;;;;1999.90;999.90;;;10.10;99.90;;;;;;5032258;28;20171;-68
2022/12/22 07:02:48;;;;;;;1999.90;999.90;;;10.20;99.90;;;;;;5032179;28;20193;-67
2022/12/22 07:05:14;;;;;;;1999.90;999.90;;;10.20;99.90;;;;;;5032193;28;20171;-68
2022/12/22 07:07:40;;;;;;;1999.90;999.90;;;10.10;99.90;;;;;;5031860;28;20622;-68
2022/12/22 07:10:06;;;;;;;1999.90;999.90;;;10.00;99.90;;;;;;5032126;28;20419;-67
2022/12/22 07:12:32;;;;;;;1999.90;999.90;;;10.10;99.90;;;;;;5031949;28;20533;-67
2022/12/22 07:14:58;;;;;;;1999.90;999.90;;;10.00;99.90;;;;;;5031998;28;20576;-66
2022/12/22 07:17:23;;;;;;;1999.90;999.90;;;10.00;99.90;;;;;;5031845;28;20413;-67
2022/12/22 07:19:49;;;;;;;1999.90;999.90;;;10.00;99.90;;;;;;5031920;28;20170;-67
2022/12/22 07:22:14;;;;;;;1999.90;999.90;;;9.80;99.90;;;;;;5031812;28;20241;-67
2022/12/22 07:24:40;;;;;;;1999.90;999.90;;;10.10;99.90;;;;;;5032011;28;20166;-67
2022/12/22 07:27:05;;;;;;;1999.90;999.90;;;10.00;99.90;;;;;;5031722;28;20253;-67
2022/12/22 07:29:31;;;;;;;1999.90;999.90;;;9.90;99.90;;;;;;5031797;28;20262;-67
2022/12/22 07:31:57;;;;;;;1999.90;999.90;;;9.90;99.90;;;;;;5031792;28;20279;-67
2022/12/22 07:34:22;;;;;;;1999.90;999.90;;;10.00;99.90;;;;;;5031680;28;20213;-67
2022/12/22 07:36:48;;;;;;;1999.90;999.90;;;10.20;99.90;;;;;;5031652;28;20209;-66
2022/12/22 07:39:13;;;;;;;1999.90;999.90;;;10.10;99.90;;;;;;5031662;28;20260;-67
2022/12/22 07:44:23;;;;;;;1999.90;999.90;;;10.40;99.90;;;;;;5020098;28;20239;-68
2022/12/22 07:46:49;;;;;;;1999.90;999.90;;;10.40;99.90;;;;;;5027279;28;20432;-67
2022/12/22 07:51:59;;;;;;;1999.90;999.90;;;10.30;99.90;;;;;;5003364;28;20449;-66
2022/12/22 07:54:25;;;;;;;1999.90;999.90;;;10.30;99.90;;;;;;5026121;28;20460;-66
2022/12/22 07:56:51;;;;;;;1999.90;999.90;;;10.40;99.90;;;;;;5028041;28;20661;-67
2022/12/22 07:59:17;;;;;;;1999.90;999.90;;;10.30;99.90;;;;;;5029311;28;20421;-67
2022/12/22 08:01:44;;;;;;;1999.90;999.90;;;10.20;99.90;;;;;;5031539;28;20489;-67
2022/12/22 08:04:11;;;;;;;1999.90;999.90;;;10.20;99.90;;;;;;5031511;28;20248;-67
2022/12/22 08:06:37;;;;;;;1999.90;999.90;;;10.10;99.90;;;;;;5031383;28;20412;-67
2022/12/22 08:09:04;;;;;;;1999.90;999.90;;;10.30;99.90;;;;;;5031314;28;20826;-67
2022/12/22 08:11:30;;;;;;;1999.90;999.90;;;;;;;;;;5031416;28;20438;-67
2022/12/22 08:13:55;;;;;;;1999.90;999.90;;;10.60;99.90;;;;;;5031423;28;20453;-67
2022/12/22 08:16:21;;;;;;;1999.90;999.90;;;10.40;99.90;;;;;;5030907;28;20413;-67
2022/12/22 08:18:48;;;;;;;1999.90;999.90;;;10.30;99.90;;;;;;5031323;28;20169;-67
2022/12/22 08:21:14;;;;;;;1999.90;999.90;;;10.20;99.90;;;;;;5031319;28;20422;-67
2022/12/22 08:23:39;;;;;;;1999.90;999.90;;;10.40;99.90;;;;;;5031361;28;20440;-67
2022/12/22 08:26:22;;;;;;;1999.90;999.90;;;10.20;99.90;;;;;;5031679;28;20487;-67
2022/12/22 08:29:20;;;;;;;1999.90;999.90;;;10.20;99.90;;;;;;5031144;28;20167;-67
2022/12/22 08:31:46;;;;;;;1999.90;999.90;;;10.00;99.90;;;;;;5028278;28;20419;-67
2022/12/22 08:34:14;;;;;;;1999.90;999.90;;;10.30;99.90;;;;;;5034861;28;20948;-67
2022/12/22 08:36:46;;;;;;;1999.90;999.90;;;10.20;99.90;;;;;;5034807;28;20918;-67
2022/12/22 08:39:12;;;;;;;1999.90;999.90;;;9.90;99.90;;;;;;5034657;28;20823;-67
2022/12/22 08:41:50;;;;;;;1999.90;999.90;;;10.10;99.90;;;;;;5034669;28;20442;-67
2022/12/22 08:44:22;;;;;;;1999.90;999.90;;;9.80;99.90;;;;;;5034854;28;20722;-67
2022/12/22 08:46:48;;;;;;;1999.90;999.90;;;9.90;99.90;;;;;;5034633;28;20452;-67
2022/12/22 08:49:14;;;;;;;1999.90;999.90;;;9.90;99.90;;;;;;5034492;28;20415;-67
2022/12/22 08:51:39;;;;;;;1999.90;999.90;;;9.90;99.90;;;;;;5034514;28;20421;-67
2022/12/22 08:54:05;;;;;;;1999.90;999.90;;;10.00;99.90;;;;;;5034360;28;20475;-67
2022/12/22 08:56:30;;;;;;;1999.90;999.90;;;10.00;99.90;;;;;;5034444;28;20220;-67
2022/12/22 08:58:56;;;;;;;1999.90;999.90;;;10.10;99.90;;;;;;5034324;28;20204;-67
2022/12/22 09:01:22;;;;;;;1999.90;999.90;;;9.80;99.90;;;;;;5034396;28;20688;-67
2022/12/22 09:03:52;;;;;;;1999.90;999.90;;;10.30;99.90;;;;;;5034226;28;20460;-67
2022/12/22 09:06:20;;;;;;;1999.90;999.90;;;9.90;99.90;;;;;;5034260;28;20420;-67
2022/12/22 09:08:46;;;;;;;1999.90;999.90;;;10.10;99.90;;;;;;5034039;28;20410;-67
2022/12/22 09:11:12;;;;;;;1999.90;999.90;;;10.10;99.90;;;;;;5034285;28;20469;-68
2022/12/22 09:13:38;;;;;;;1999.90;999.90;;;9.90;99.90;;;;;;5034036;28;20516;-68
2022/12/22 09:16:05;;;;;;;1999.90;999.90;;;9.90;99.90;;;;;;5034068;28;20181;-68
2022/12/22 09:18:30;;;;;;;1999.90;999.90;;;10.00;99.90;;;;;;5033968;28;20172;-67
2022/12/22 09:20:56;;;;;;;1999.90;999.90;;;10.10;99.90;;;;;;5033993;28;20777;-67
2022/12/22 09:23:22;;;;;;;1999.90;999.90;;;9.90;99.90;;;;;;5034105;28;20197;-67
2022/12/22 09:25:47;;;;;;;1999.90;999.90;;;10.70;99.90;;;;;;5033944;28;20591;-67
2022/12/22 09:28:13;;;;;;;1999.90;999.90;;;10.40;99.90;;;;;;5033682;28;20180;-67
2022/12/22 09:30:38;;;;;;;1999.90;999.90;;;10.00;99.90;;;;;;5033897;28;20636;-67
2022/12/22 09:33:04;;;;;;;1999.90;999.90;;;10.20;99.90;;;;;;5033806;28;20203;-67
2022/12/22 09:35:29;;;;;;;1999.90;999.90;;;10.20;99.90;;;;;;5033647;28;20202;-67
2022/12/22 09:37:55;;;;;;;1999.90;999.90;;;10.10;99.90;;;;;;5033470;28;20172;-67
2022/12/22 09:40:21;;;;;;;1999.90;999.90;;;10.40;99.90;;;;;;5033729;28;20643;-67
2022/12/22 09:42:46;;;;;;;1999.90;999.90;;;10.40;99.90;;;;;;5032620;28;20221;-67
2022/12/22 09:45:20;;;;;;;1999.90;999.90;;;10.30;99.90;;;;;;5033660;28;20198;-67
2022/12/22 09:47:53;;;;;;;1999.90;999.90;;;10.30;99.90;;;;;;5033189;28;20182;-68
2022/12/22 09:50:23;;;;;;;1999.90;999.90;;;10.40;99.90;;;;;;5033523;28;20437;-67
2022/12/22 09:53:00;;;;;;;1999.90;999.90;;;10.30;99.90;;;;;;5033355;28;20427;-67
2022/12/22 09:55:25;;;;;;;1999.90;999.90;;;10.60;99.90;;;;;;5033301;28;20462;-67
2022/12/22 09:57:52;;;;;;;1999.90;999.90;;;10.40;99.90;;;;;;5033140;28;20420;-67
2022/12/22 10:00:21;;;;;;;1999.90;999.90;;;10.40;99.90;;;;;;5033375;28;20192;-67
2022/12/22 10:03:05;;;;;;;1999.90;999.90;;;10.40;99.90;;;;;;5033150;28;20425;-68
2022/12/22 10:05:48;;;;;;;1999.90;999.90;;;10.60;99.90;;;;;;5033295;28;20433;-68
2022/12/22 10:08:20;;;;;;;1999.90;999.90;;;10.60;99.90;;;;;;5033071;28;20852;-67
2022/12/22 10:10:52;;;;;;;1999.90;999.90;;;10.80;99.90;;;;;;5033192;28;20464;-67
2022/12/22 10:13:19;;;;;;;1999.90;999.90;;;10.60;99.90;;;;;;5033174;28;20723;-67
2022/12/22 10:15:45;;;;;;;1999.90;999.90;;;10.60;99.90;;;;;;5033006;28;20498;-67
2022/12/22 10:18:16;;;;;;;1999.90;999.90;;;10.60;99.90;;;;;;5032739;28;20929;-67
2022/12/22 10:20:45;;;;;;;1999.90;999.90;;;10.50;99.90;;;;;;5032971;28;20493;-67
2022/12/22 10:23:18;;;;;;;1999.90;999.90;;;10.80;99.90;;;;;;5032788;28;20535;-67
2022/12/22 10:25:56;;;;;;;1999.90;999.90;;;10.80;99.90;;;;;;5032693;28;20776;-67
2022/12/22 10:28:26;;;;;;;1999.90;999.90;;;10.40;99.90;;;;;;5032754;28;20413;-67
2022/12/22 10:31:27;;;;;;;1999.90;999.90;;;10.40;99.90;;;;;;5032771;28;20410;-67
2022/12/22 10:34:14;;;;;;;1999.90;999.90;;;10.60;99.90;;;;;;5032283;28;20565;-67
2022/12/22 10:36:46;;;;;;;1999.90;999.90;;;10.80;99.90;;;;;;5032451;28;20426;-67
2022/12/22 10:39:25;;;;;;;1999.90;999.90;;;10.70;99.90;;;;;;5032561;28;20840;-67
2022/12/22 10:41:55;;;;;;;1999.90;999.90;;;10.50;99.90;;;;;;5032450;28;20438;-67
2022/12/22 10:44:24;;;;;;;1999.90;999.90;;;10.60;99.90;;;;;;5032444;28;20422;-67
2022/12/22 10:46:56;;;;;;;1999.90;999.90;;;10.60;99.90;;;;;;5032199;28;20430;-67
2022/12/22 10:49:40;;;;;;;1999.90;999.90;;;10.60;99.90;;;;;;5032281;28;20445;-67
2022/12/22 10:52:14;;;;;;;1999.90;999.90;;;10.60;99.90;;;;;;5032269;28;20421;-66
2022/12/22 10:54:41;;;;;;;1999.90;999.90;;;10.60;99.90;;;;;;5031890;28;20451;-67
2022/12/22 10:57:12;;;;;;;1999.90;999.90;;;10.20;99.90;;;;;;5032043;28;20420;-67
2022/12/22 10:59:52;;;;;;;1999.90;999.90;;;10.50;99.90;;;;;;5032121;28;20407;-66
2022/12/22 11:02:20;;;;;;;1999.90;999.90;;;10.40;99.90;;;;;;5032225;28;20428;-67
2022/12/22 11:04:47;;;;;;;1999.90;999.90;;;10.40;99.90;;;;;;5032166;28;20412;-67
2022/12/22 11:07:13;;;;;;;1999.90;999.90;;;10.70;99.90;;;;;;5031859;28;20900;-67
2022/12/22 11:09:38;;;;;;;1999.90;999.90;;;10.80;99.90;;;;;;5032037;28;20504;-67
2022/12/22 11:12:12;;;;;;;1999.90;999.90;;;10.70;99.90;;;;;;5032076;28;20800;-67
2022/12/22 11:14:55;;;;;;;1999.90;999.90;;;10.80;99.90;;;;;;5031969;28;20591;-67
2022/12/22 11:17:54;;;;;;;1999.90;999.90;;;11.70;99.90;;;;;;5031999;28;20508;-67
2022/12/22 11:20:20;;;;;;;1999.90;999.90;;;11.60;99.90;;;;;;5032133;28;20899;-68
2022/12/22 11:22:54;;;;;;;1999.90;999.90;;;11.90;99.90;;;;;;5031938;28;20439;-68
2022/12/22 11:25:38;;;;;;;1999.90;999.90;;;11.80;99.90;;;;;;5032025;28;20300;-68
2022/12/22 11:28:41;;;;;;;1999.90;999.90;;;11.40;99.90;;;;;;5031620;28;20500;-68
2022/12/22 11:31:14;;;;;;;1999.90;999.90;;;11.20;99.90;;;;;;5032139;28;20509;-68
2022/12/22 11:34:19;;;;;;;1999.90;999.90;;;11.20;99.90;;;;;;5031692;28;20427;-68
2022/12/22 11:37:05;;;;;;;1999.90;999.90;;;11.10;99.90;;;;;;5031746;28;20485;-68
2022/12/22 11:39:39;;;;;;;1999.90;999.90;;;11.20;99.90;;;;;;5031779;28;20400;-68
2022/12/22 11:42:19;;;;;;;1999.90;999.90;;;11.20;99.90;;;;;;5031783;28;20763;-68
2022/12/22 11:45:22;;;;;;;1999.90;999.90;;;11.40;99.90;;;;;;5031713;28;20406;-68
2022/12/22 11:48:32;;;;;;;1999.90;999.90;;;11.80;99.90;;;;;;5031282;28;20434;-68
2022/12/22 11:51:36;;;;;;;1999.90;999.90;;;12.10;99.90;;;;;;5016337;28;20415;-68
2022/12/22 11:54:11;;;;;;;1999.90;999.90;;;12.00;99.90;;;;;;5013392;28;20486;-68
2022/12/22 11:56:43;;;;;;;1999.90;999.90;;;11.70;99.90;;;;;;5031589;28;20421;-68
2022/12/22 11:59:46;;;;;;;1999.90;999.90;;;11.60;99.90;;;;;;5031419;28;20442;-67
2022/12/22 12:02:48;;;;;;;1999.90;999.90;;;11.60;99.90;;;;;;5031723;28;20426;-68
2022/12/22 12:05:30;;;;;;;1999.90;999.90;;;12.40;99.90;;;;;;5031817;28;20407;-67
2022/12/22 12:07:58;;;;;;;1999.90;999.90;;;13.00;99.90;;;;;;5035258;28;20412;-68
2022/12/22 12:10:27;;;;;;;1999.90;999.90;;;13.20;99.90;;;;;;5035173;28;20471;-68
2022/12/22 12:13:17;;;;;;;1999.90;999.90;;;13.70;1.00;;;;;;5035240;28;20415;-67
2022/12/22 12:16:17;;;;;;;1999.90;999.90;;;14.40;99.90;;;;;;5035186;28;20545;-67
2022/12/22 12:19:03;;;;;;;1999.90;999.90;;;15.10;1.00;;;;;;5035138;28;20445;-68
2022/12/22 12:21:41;;;;;;;1999.90;999.90;;;15.80;95.60;;;;;;5035120;28;20957;-68
2022/12/22 12:24:13;;;;;;;1999.90;999.90;;;16.20;99.90;;;;;;5035098;28;20403;-68
2022/12/22 12:27:01;;;;;;;1999.90;999.90;;;16.40;1.00;;;;;;5034980;28;20408;-68
2022/12/22 12:29:32;;;;;;;1999.90;999.90;;;16.30;1.00;;;;;;5035030;28;20749;-67
2022/12/22 12:32:14;;;;;;;1999.90;999.90;;;16.30;1.00;;;;;;5033694;28;20868;-68
2022/12/22 12:34:45;;;;;;;1999.90;999.90;;;16.00;99.90;;;;;;5034830;28;20848;-66
2022/12/22 12:37:21;;;;;;;1999.90;999.90;;;15.40;1.00;;;;;;5034782;28;20410;-66
2022/12/22 12:40:15;;;;;;;1999.90;999.90;;;14.70;99.90;;;;;;5034811;28;20399;-67
2022/12/22 12:42:44;;;;;;;1999.90;999.90;;;14.10;99.90;;;;;;5034809;28;20905;-67
2022/12/22 12:45:32;;;;;;;1999.90;999.90;;;13.60;99.90;;;;;;5034758;28;20470;-66
2022/12/22 12:48:23;;;;;;;1999.90;999.90;;;13.20;53.90;;;;;;5030035;28;20433;-66
2022/12/22 12:50:56;;;;;;;1999.90;999.90;;;12.90;99.90;;;;;;5034428;28;20414;-66
2022/12/22 12:53:23;;;;;;;1999.90;999.90;;;12.70;99.90;;;;;;5034304;28;20415;-67
2022/12/22 12:55:48;;;;;;;1999.90;999.90;;;12.50;1.00;;;;;;5029864;28;20841;-67
2022/12/22 12:58:34;;;;;;;1999.90;999.90;;;12.60;99.90;;;;;;5031737;28;20426;-67
2022/12/22 13:01:01;;;;;;;1999.90;999.90;;;12.60;99.90;;;;;;5032036;28;20181;-68
2022/12/22 13:03:27;;;;;;;1999.90;999.90;;;12.50;99.90;;;;;;5031792;28;20420;-67
2022/12/22 13:05:58;;;;;;;1999.90;999.90;;;12.30;99.90;;;;;;5032338;28;20407;-67
2022/12/22 13:08:46;;;;;;;1999.90;999.90;;;12.10;99.90;;;;;;5032228;28;20258;-67
2022/12/22 13:11:14;;;;;;;1999.90;999.90;;;11.90;1.00;;;;;;5032831;28;20407;-67
2022/12/22 13:13:40;;;;;;;1999.90;999.90;;;11.80;1.00;;;;;;5032637;28;20438;-67
2022/12/22 13:16:05;;;;;;;1999.90;999.90;;;11.70;1.00;;;;;;5031356;28;20403;-67
2022/12/22 13:18:44;;;;;;;1999.90;999.90;;;11.70;1.00;;;;;;5031319;28;20172;-67
2022/12/22 13:21:25;;;;;;;1999.90;999.90;;;11.60;1.00;;;;;;5032469;28;20179;-68
2022/12/22 13:23:53;;;;;;;1999.90;999.90;;;11.60;1.00;;;;;;5032018;28;20465;-67
2022/12/22 13:26:41;;;;;;;1999.90;999.90;;;11.70;1.00;;;;;;5032104;28;20403;-67
2022/12/22 13:29:12;;;;;;;1999.90;999.90;;;11.80;1.00;;;;;;5030927;28;20418;-67
2022/12/22 13:31:54;;;;;;;1999.90;999.90;;;12.30;1.00;;;;;;5031956;28;20400;-67
2022/12/22 13:34:47;;;;;;;1999.90;999.90;;;12.10;1.00;;;;;;5032275;28;20459;-67
2022/12/22 13:37:25;;;;;;;1999.90;999.90;;;12.30;1.00;;;;;;5030903;28;20460;-67
2022/12/22 13:40:14;;;;;;;1999.90;999.90;;;12.50;1.00;;;;;;5031692;28;20396;-68
2022/12/22 13:42:55;;;;;;;1999.90;999.90;;;12.50;1.00;;;;;;5032208;28;20416;-67
2022/12/22 13:45:28;;;;;;;1999.90;999.90;;;12.90;99.90;;;;;;5032240;28;20406;-68
2022/12/22 13:47:54;;;;;;;1999.90;999.90;;;12.90;99.90;;;;;;5030201;28;20427;-67
2022/12/22 13:50:27;;;;;;;1999.90;999.90;;;13.10;99.90;;;;;;5032081;28;20408;-67
2022/12/22 13:52:55;;;;;;;1999.90;999.90;;;13.10;99.90;;;;;;5031653;28;20424;-67
2022/12/22 13:55:29;;;;;;;1999.90;999.90;;;13.10;99.90;;;;;;5031408;28;20451;-67
2022/12/22 13:58:02;;;;;;;1999.90;999.90;;;13.10;99.90;;;;;;5030499;28;20488;-68
2022/12/22 14:00:28;;;;;;;1999.90;999.90;;;13.10;29.80;;;;;;5031462;28;20396;-67
2022/12/22 14:02:54;;;;;;;1999.90;999.90;;;13.00;1.00;;;;;;5031338;28;20436;-68
2022/12/22 14:05:20;;;;;;;1999.90;999.90;;;13.00;92.60;;;;;;5031569;28;20510;-68
2022/12/22 14:08:04;;;;;;;1999.90;999.90;;;13.10;99.90;;;;;;5030422;28;20237;-68
2022/12/22 14:10:40;;;;;;;1999.90;999.90;;;14.10;99.90;;;;;;5031339;28;20421;-67
2022/12/22 14:13:14;;;;;;;1999.90;999.90;;;14.90;1.00;;;;;;5030141;28;20536;-68
2022/12/22 14:15:40;;;;;;;1999.90;999.90;;;15.10;1.00;;;;;;5030521;28;20947;-67
2022/12/22 14:18:06;;;;;;;1999.90;999.90;;;14.80;86.10;;;;;;5030368;28;20417;-67
2022/12/22 14:20:36;;;;;;;1999.90;999.90;;;14.80;99.90;;;;;;5031327;28;20414;-68
2022/12/22 14:23:17;;;;;;;1999.90;999.90;;;14.50;1.00;;;;;;5030406;28;20431;-68
2022/12/22 14:25:44;;;;;;;1999.90;999.90;;;14.00;99.90;;;;;;5031404;28;20409;-67
2022/12/22 14:28:24;;;;;;;1999.90;999.90;;;13.50;99.90;;;;;;5029827;28;20403;-66
2022/12/22 14:30:53;;;;;;;1999.90;999.90;;;13.20;1.00;;;;;;5030668;28;20539;-67
2022/12/22 14:33:26;;;;;;;1999.90;999.90;;;12.80;99.90;;;;;;5031074;28;20798;-67
2022/12/22 14:36:24;;;;;;;1999.90;999.90;;;12.70;1.00;;;;;;5030677;28;20531;-68
2022/12/22 14:38:51;;;;;;;1999.90;999.90;;;12.40;99.90;;;;;;5030011;28;20402;-67
2022/12/22 14:41:41;;;;;;;1999.90;999.90;;;12.30;99.90;;;;;;5030901;28;20402;-68
2022/12/22 14:44:18;;;;;;;1999.90;999.90;;;12.00;99.90;;;;;;5031011;28;20403;-67
2022/12/22 14:47:02;;;;;;;1999.90;999.90;;;11.90;99.90;;;;;;5030006;28;20417;-68
2022/12/22 14:49:27;;;;;;;1999.90;999.90;;;11.80;1.00;;;;;;5030180;28;20442;-68
2022/12/22 14:52:05;;;;;;;1999.90;999.90;;;11.70;1.00;;;;;;5030600;28;20449;-68
2022/12/22 14:54:30;;;;;;;1999.90;999.90;;;11.60;1.00;;;;;;5030239;28;20277;-67
2022/12/22 14:57:02;;;;;;;1999.90;999.90;;;11.50;1.00;;;;;;5030086;28;20433;-68
2022/12/22 14:59:28;;;;;;;1999.90;999.90;;;11.30;1.00;;;;;;5030092;28;20175;-68
2022/12/22 15:02:21;;;;;;;1999.90;999.90;;;11.40;1.00;;;;;;5030012;28;20445;-68
2022/12/22 15:04:47;;;;;;;1999.90;999.90;;;11.00;1.00;;;;;;4999345;28;20739;-68
2022/12/22 15:07:19;;;;;;;1999.90;999.90;;;11.40;1.00;;;;;;5029636;28;20402;-67
2022/12/22 15:09:45;;;;;;;1999.90;999.90;;;11.30;1.00;;;;;;5030111;28;20176;-67
2022/12/22 15:12:13;;;;;;;1999.90;999.90;;;11.40;1.00;;;;;;5030514;28;20431;-68
2022/12/22 15:14:39;;;;;;;1999.90;999.90;;;11.40;1.00;;;;;;5030011;28;20557;-67
2022/12/22 15:17:18;;;;;;;1999.90;999.90;;;11.40;1.00;;;;;;5029393;28;20835;-67
2022/12/22 15:19:44;;;;;;;1999.90;999.90;;;11.40;1.00;;;;;;5030012;28;20425;-67
2022/12/22 15:22:11;;;;;;;1999.90;999.90;;;11.50;1.00;;;;;;5029643;28;20431;-68
2022/12/22 15:24:36;;;;;;;1999.90;999.90;;;11.50;1.00;;;;;;5030330;28;20230;-67
2022/12/22 15:27:02;;;;;;;1999.90;999.90;;;11.50;1.00;;;;;;5029811;28;20846;-69
2022/12/22 15:29:27;;;;;;;1999.90;999.90;;;11.50;1.00;;;;;;5029453;28;20230;-68
2022/12/22 15:31:53;;;;;;;1999.90;999.90;;;11.50;1.00;;;;;;5028561;28;20562;-68
2022/12/22 15:34:25;;;;;;;1999.90;999.90;;;11.50;1.00;;;;;;5030282;28;20199;-67
2022/12/22 15:36:51;;;;;;;1999.90;999.90;;;11.50;1.00;;;;;;5029613;28;20180;-68
2022/12/22 15:39:18;;;;;;;1999.90;999.90;;;11.50;1.00;;;;;;5029790;28;20425;-67
2022/12/22 15:41:45;;;;;;;1999.90;999.90;;;11.30;1.00;;;;;;5033322;28;20494;-68
2022/12/22 15:44:11;;;;;;;1999.90;999.90;;;11.40;1.00;;;;;;5034511;28;20955;-68
2022/12/22 15:46:38;;;;;;;1999.90;999.90;;;11.40;1.00;;;;;;5034520;28;20470;-68
2022/12/22 15:49:26;;;;;;;1999.90;999.90;;;11.40;1.00;;;;;;5034562;28;20414;-67
2022/12/22 15:51:58;;;;;;;1999.90;999.90;;;11.40;1.00;;;;;;5033576;28;21324;-67
2022/12/22 15:54:26;;;;;;;1999.90;999.90;;;11.30;1.00;;;;;;5034642;28;20850;-68
2022/12/22 15:56:53;;;;;;;1999.90;999.90;;;11.30;1.00;;;;;;5034241;28;20407;-68
2022/12/22 15:59:24;;;;;;;1999.90;999.90;;;11.30;1.00;;;;;;5032156;28;20421;-68